sensor_id;sensor_type;location;lat;lon;timestamp;temperature;humidity
40249;DHT22;25969;49.970;11.062;2023-03-31T04:10:08;10.60;99.90
40249;DHT22;25969;49.970;11.062;2023-03-31T04:20:09;10.70;99.90
40249;DHT22;25969;49.970;11.062;2023-03-31T04:30:14;10.60;99.90
40249;DHT22;25969;49.970;11.062;2023-03-31T04:40:22;10.40;99.90
40249;DHT22;25969;49.970;11.062;2023-03-31T04:50:22;9.60;99.90
40249;DHT22;25969;49.970;11.062;2023-03-31T05:00:24;9.40;99.90
40249;DHT22;25969;49.970;11.062;2023-03-31T05:10:26;9.40;99.90
40249;DHT22;25969;49.970;11.062;2023-03-31T05:20:26;9.30;99.90
40249;DHT22;25969;49.970;11.062;2023-03-31T05:30:27;9.20;99.90
40249;DHT22;25969;49.970;11.062;2023-03-31T05:40:29;9.10;99.90
40249;DHT22;25969;49.970;11.062;2023-03-31T05:50:29;9.00;99.90
40249;DHT22;25969;49.970;11.062;2023-03-31T06:00:30;9.10;99.90
40249;DHT22;25969;49.970;11.062;2023-03-31T06:10:31;9.20;99.90
40249;DHT22;25969;49.970;11.062;2023-03-31T06:20:32;9.40;99.90
40249;DHT22;25969;49.970;11.062;2023-03-31T06:30:33;9.50;99.90
40249;DHT22;25969;49.970;11.062;2023-03-31T06:40:33;9.70;99.90
40249;DHT22;25969;49.970;11.062;2023-03-31T06:50:37;9.70;99.90
40249;DHT22;25969;49.970;11.062;2023-03-31T07:00:38;9.70;99.90
40249;DHT22;25969;49.970;11.062;2023-03-31T07:10:38;9.50;99.90
40249;DHT22;25969;49.970;11.062;2023-03-31T07:20:39;9.20;99.90
40249;DHT22;25969;49.970;11.062;2023-03-31T07:30:41;9.00;99.90
40249;DHT22;25969;49.970;11.062;2023-03-31T07:40:43;8.90;99.90
40249;DHT22;25969;49.970;11.062;2023-03-31T07:50:44;9.00;99.90
40249;DHT22;25969;49.970;11.062;2023-03-31T08:00:54;9.00;99.90
40249;DHT22;25969;49.970;11.062;2023-03-31T08:10:55;8.90;99.90
40249;DHT22;25969;49.970;11.062;2023-03-31T08:20:56;8.90;99.90
40249;DHT22;25969;49.970;11.062;2023-03-31T08:31:02;9.10;99.90
40249;DHT22;25969;49.970;11.062;2023-03-31T08:41:19;9.00;99.90
40249;DHT22;25969;49.970;11.062;2023-03-31T08:51:36;9.10;99.90
40249;DHT22;25969;49.970;11.062;2023-03-31T09:01:44;9.00;99.90
40249;DHT22;25969;49.970;11.062;2023-03-31T09:11:54;9.10;99.90
40249;DHT22;25969;49.970;11.062;2023-03-31T09:21:57;9.30;99.90
40249;DHT22;25969;49.970;11.062;2023-03-31T09:32:16;9.50;99.90
40249;DHT22;25969;49.970;11.062;2023-03-31T09:42:17;10.00;99.90
40249;DHT22;25969;49.970;11.062;2023-03-31T09:52:46;9.90;99.90
40249;DHT22;25969;49.970;11.062;2023-03-31T10:02:55;9.60;99.90
40249;DHT22;25969;49.970;11.062;2023-03-31T10:13:09;9.80;99.90
40249;DHT22;25969;49.970;11.062;2023-03-31T10:23:26;9.80;99.90
40249;DHT22;25969;49.970;11.062;2023-03-31T10:33:30;9.50;99.90
40249;DHT22;25969;49.970;11.062;2023-03-31T10:43:43;9.20;99.90
40249;DHT22;25969;49.970;11.062;2023-03-31T10:53:49;9.00;99.90
40249;DHT22;25969;49.970;11.062;2023-03-31T11:14:38;8.70;99.90
40249;DHT22;25969;49.970;11.062;2023-03-31T11:45:20;8.90;99.90
40249;DHT22;25969;49.970;11.062;2023-03-31T11:55:25;8.70;99.90
40249;DHT22;25969;49.970;11.062;2023-03-31T12:05:30;9.20;99.90
40249;DHT22;25969;49.970;11.062;2023-03-31T12:15:36;9.30;99.90
40249;DHT22;25969;49.970;11.062;2023-03-31T12:25:46;9.20;99.90
40249;DHT22;25969;49.970;11.062;2023-03-31T13:07:02;11.20;99.90
40249;DHT22;25969;49.970;11.062;2023-03-31T13:17:22;11.50;99.90
40249;DHT22;25969;49.970;11.062;2023-03-31T13:27:34;10.60;99.90
40249;DHT22;25969;49.970;11.062;2023-03-31T13:37:59;10.60;99.90
40249;DHT22;25969;49.970;11.062;2023-03-31T14:09:09;14.60;93.80
40249;DHT22;25969;49.970;11.062;2023-03-31T14:19:47;13.60;94.70
40249;DHT22;25969;49.970;11.062;2023-03-31T14:30:08;13.00;95.40
40249;DHT22;25969;49.970;11.062;2023-03-31T14:40:15;12.40;98.20
40249;DHT22;25969;49.970;11.062;2023-03-31T14:50:17;12.80;97.80
40249;DHT22;25969;49.970;11.062;2023-03-31T15:00:26;11.90;99.90
40249;DHT22;25969;49.970;11.062;2023-03-31T15:10:32;12.00;99.90
40249;DHT22;25969;49.970;11.062;2023-03-31T15:20:38;11.60;99.90
40249;DHT22;25969;49.970;11.062;2023-03-31T15:30:39;11.20;99.90
40249;DHT22;25969;49.970;11.062;2023-03-31T15:40:40;11.20;99.90
40249;DHT22;25969;49.970;11.062;2023-03-31T15:50:44;11.50;99.90
40249;DHT22;25969;49.970;11.062;2023-03-31T16:00:52;12.00;99.90
40249;DHT22;25969;49.970;11.062;2023-03-31T16:10:58;11.70;99.90
40249;DHT22;25969;49.970;11.062;2023-03-31T16:21:03;11.40;99.90
40249;DHT22;25969;49.970;11.062;2023-03-31T16:41:35;10.00;99.90
40249;DHT22;25969;49.970;11.062;2023-03-31T16:51:36;10.40;99.90
40249;DHT22;25969;49.970;11.062;2023-03-31T17:01:37;10.70;99.90
40249;DHT22;25969;49.970;11.062;2023-03-31T17:11:38;10.50;99.90
40249;DHT22;25969;49.970;11.062;2023-03-31T17:21:38;10.10;99.90
40249;DHT22;25969;49.970;11.062;2023-03-31T17:31:39;10.00;99.90
40249;DHT22;25969;49.970;11.062;2023-03-31T17:41:40;10.00;99.90
40249;DHT22;25969;49.970;11.062;2023-03-31T17:51:41;10.10;99.90
40249;DHT22;25969;49.970;11.062;2023-03-31T18:01:43;9.70;99.90
40249;DHT22;25969;49.970;11.062;2023-03-31T18:11:44;9.30;99.90
40249;DHT22;25969;49.970;11.062;2023-03-31T18:21:45;9.10;99.90
40249;DHT22;25969;49.970;11.062;2023-03-31T18:31:46;9.00;99.90
40249;DHT22;25969;49.970;11.062;2023-03-31T18:41:47;9.40;99.90
40249;DHT22;25969;49.970;11.062;2023-03-31T18:51:48;9.60;99.90
40249;DHT22;25969;49.970;11.062;2023-03-31T19:01:49;9.60;99.90
40249;DHT22;25969;49.970;11.062;2023-03-31T19:11:51;9.60;99.90
40249;DHT22;25969;49.970;11.062;2023-03-31T19:21:52;9.70;99.90
40249;DHT22;25969;49.970;11.062;2023-03-31T19:31:53;9.50;99.90
40249;DHT22;25969;49.970;11.062;2023-03-31T19:41:55;9.50;99.90
40249;DHT22;25969;49.970;11.062;2023-03-31T19:51:56;9.60;99.90
40249;DHT22;25969;49.970;11.062;2023-03-31T20:01:57;9.60;99.90
40249;DHT22;25969;49.970;11.062;2023-03-31T20:11:59;9.50;99.90
40249;DHT22;25969;49.970;11.062;2023-03-31T20:22:00;9.40;99.90
40249;DHT22;25969;49.970;11.062;2023-03-31T20:32:01;9.00;99.90
40249;DHT22;25969;49.970;11.062;2023-03-31T20:42:02;8.90;99.90
40249;DHT22;25969;49.970;11.062;2023-03-31T20:52:03;8.80;99.90
40249;DHT22;25969;49.970;11.062;2023-03-31T21:02:04;8.60;99.90
40249;DHT22;25969;49.970;11.062;2023-03-31T21:12:05;9.00;99.90
40249;DHT22;25969;49.970;11.062;2023-03-31T21:22:06;8.40;99.90
40249;DHT22;25969;49.970;11.062;2023-03-31T21:32:07;8.30;99.90
40249;DHT22;25969;49.970;11.062;2023-03-31T21:42:08;8.10;99.90
40249;DHT22;25969;49.970;11.062;2023-03-31T21:52:09;8.10;99.90
